createdAt,value
2022-12-04T00:00:08.011Z,24.60
2022-12-04T00:01:07.969Z,24.10
2022-12-04T00:02:07.931Z,25.30
2022-12-04T00:03:07.921Z,25.00
2022-12-04T00:04:07.830Z,24.90
2022-12-04T00:05:07.858Z,25.00
2022-12-04T00:06:07.742Z,24.60
2022-12-04T00:07:07.692Z,24.50
2022-12-04T00:08:07.729Z,24.80
2022-12-04T00:09:07.602Z,25.00
2022-12-04T00:10:07.554Z,25.00
2022-12-04T00:11:07.511Z,25.50
2022-12-04T00:12:07.482Z,24.60
2022-12-04T00:13:07.425Z,25.80
2022-12-04T00:14:07.668Z,25.70
2022-12-04T00:16:07.351Z,24.60
2022-12-04T00:17:07.234Z,25.30
2022-12-04T00:18:07.199Z,24.80
2022-12-04T00:19:07.141Z,24.90
2022-12-04T00:20:07.104Z,25.30
2022-12-04T00:21:07.802Z,24.90
2022-12-04T00:22:07.114Z,25.00
2022-12-04T00:23:06.976Z,25.30
2022-12-04T00:24:07.068Z,25.70
2022-12-04T00:25:06.881Z,25.50
2022-12-04T00:26:06.827Z,25.90
2022-12-04T00:27:06.775Z,25.10
2022-12-04T00:28:06.729Z,24.80
2022-12-04T00:29:06.699Z,24.70
2022-12-04T00:30:06.640Z,24.90
2022-12-04T00:31:06.718Z,26.00
2022-12-04T00:32:06.676Z,25.50
2022-12-04T00:33:06.504Z,26.20
2022-12-04T00:34:08.340Z,26.20
2022-12-04T00:35:06.411Z,25.00
2022-12-04T00:36:06.362Z,26.30
2022-12-04T00:37:06.640Z,25.00
2022-12-04T00:38:07.230Z,25.70
2022-12-04T00:39:06.227Z,25.70
2022-12-04T00:40:06.192Z,25.90
2022-12-04T00:41:06.138Z,25.60
2022-12-04T00:42:06.088Z,25.40
2022-12-04T00:43:06.060Z,26.20
2022-12-04T00:44:06.002Z,25.80
2022-12-04T00:45:05.958Z,25.20
2022-12-04T00:46:06.010Z,25.30
2022-12-04T00:47:05.861Z,25.40
2022-12-04T00:48:05.813Z,25.20
2022-12-04T00:49:05.784Z,25.80
2022-12-04T00:50:05.723Z,25.80
2022-12-04T00:51:05.683Z,25.20
2022-12-04T00:52:05.631Z,25.50
2022-12-04T00:53:05.589Z,25.10
2022-12-04T00:54:05.539Z,26.30
2022-12-04T00:55:05.509Z,25.80
2022-12-04T00:56:05.448Z,26.00
2022-12-04T00:57:05.406Z,25.70
2022-12-04T00:58:05.360Z,25.40
2022-12-04T00:59:05.322Z,25.20
2022-12-04T01:00:05.281Z,26.50
2022-12-04T01:01:05.290Z,26.50
2022-12-04T01:02:05.177Z,26.10
2022-12-04T01:03:05.288Z,24.90
2022-12-04T01:04:05.087Z,25.40
2022-12-04T01:05:05.043Z,26.50
2022-12-04T01:06:05.001Z,26.60
2022-12-04T01:07:05.458Z,26.10
2022-12-04T01:08:04.915Z,25.10
2022-12-04T01:09:04.863Z,25.40
2022-12-04T01:10:04.807Z,25.90
2022-12-04T01:11:04.772Z,25.80
2022-12-04T01:12:04.736Z,25.80
2022-12-04T01:13:04.673Z,25.50
2022-12-04T01:14:04.701Z,25.80
2022-12-04T01:15:04.583Z,25.40
2022-12-04T01:16:04.614Z,25.90
2022-12-04T01:17:04.492Z,25.60
2022-12-04T01:18:04.455Z,24.30
2022-12-04T01:19:04.413Z,25.20
2022-12-04T01:20:04.522Z,26.00
2022-12-04T01:21:04.319Z,25.70
2022-12-04T01:22:04.267Z,25.60
2022-12-04T01:23:04.219Z,25.10
2022-12-04T01:24:04.171Z,25.50
2022-12-04T01:25:04.136Z,25.90
2022-12-04T01:26:04.078Z,25.40
2022-12-04T01:27:04.035Z,25.30
2022-12-04T01:28:03.984Z,25.80
2022-12-04T01:29:03.941Z,25.10
2022-12-04T01:30:03.892Z,25.10
2022-12-04T01:31:03.863Z,25.50
2022-12-04T01:32:03.878Z,25.60
2022-12-04T01:33:03.759Z,25.50
2022-12-04T01:34:03.712Z,25.50
2022-12-04T01:35:03.667Z,25.80
2022-12-04T01:36:03.620Z,25.30
2022-12-04T01:37:03.590Z,25.30
2022-12-04T01:38:03.540Z,25.20
2022-12-04T01:39:03.486Z,25.50
2022-12-04T01:40:03.435Z,24.70
2022-12-04T01:41:03.393Z,24.70
2022-12-04T01:42:03.358Z,25.00
2022-12-04T01:43:03.308Z,24.40
2022-12-04T01:44:03.255Z,26.20
2022-12-04T01:45:03.210Z,25.00
2022-12-04T01:46:10.854Z,25.60
2022-12-04T01:47:03.128Z,24.60
2022-12-04T01:48:03.069Z,25.80
2022-12-04T01:49:03.038Z,25.60
2022-12-04T01:50:02.981Z,25.50
2022-12-04T01:51:02.934Z,25.90
2022-12-04T01:52:02.889Z,25.80
2022-12-04T01:53:02.849Z,24.50
2022-12-04T01:54:02.794Z,24.70
2022-12-04T01:55:02.765Z,25.40
2022-12-04T01:56:02.713Z,25.20
2022-12-04T01:57:02.687Z,25.30
2022-12-04T01:58:02.616Z,25.60
2022-12-04T01:59:02.567Z,24.80
2022-12-04T02:00:02.529Z,26.10
2022-12-04T02:01:07.889Z,25.10
2022-12-04T02:02:02.565Z,25.50
2022-12-04T02:03:02.426Z,25.30
2022-12-04T02:04:02.350Z,25.00
2022-12-04T02:05:02.292Z,24.90
2022-12-04T02:06:02.249Z,26.10
2022-12-04T02:07:02.204Z,24.90
2022-12-04T02:08:02.224Z,25.40
2022-12-04T02:09:02.111Z,26.10
2022-12-04T02:10:02.074Z,26.50
2022-12-04T02:11:02.016Z,25.80
2022-12-04T02:12:01.991Z,25.40
2022-12-04T02:13:01.925Z,25.70
2022-12-04T02:14:01.945Z,25.50
2022-12-04T02:15:01.833Z,26.10
2022-12-04T02:16:01.792Z,25.60
2022-12-04T02:17:01.780Z,25.30
2022-12-04T02:18:01.707Z,25.00
2022-12-04T02:19:01.655Z,25.60
2022-12-04T02:20:01.609Z,25.60
2022-12-04T02:21:01.559Z,25.90
2022-12-04T02:22:01.515Z,25.80
2022-12-04T02:23:01.495Z,25.40
2022-12-04T02:24:01.424Z,25.20
2022-12-04T02:25:01.376Z,25.00
2022-12-04T02:26:01.337Z,25.20
2022-12-04T02:27:01.297Z,25.50
2022-12-04T02:28:01.247Z,26.20
2022-12-04T02:29:01.202Z,25.80
2022-12-04T02:30:01.151Z,25.40
2022-12-04T02:31:01.220Z,25.70
2022-12-04T02:32:01.059Z,26.00
2022-12-04T02:33:01.013Z,25.60
2022-12-04T02:34:00.978Z,25.80
2022-12-04T02:35:00.919Z,25.50
2022-12-04T02:36:00.875Z,25.80
2022-12-04T02:37:00.829Z,26.30
2022-12-04T02:38:00.782Z,26.40
2022-12-04T02:39:00.733Z,26.00
2022-12-04T02:40:00.706Z,26.50
2022-12-04T02:41:00.646Z,25.70
2022-12-04T02:42:00.599Z,26.50
2022-12-04T02:43:00.553Z,25.30
2022-12-04T02:44:00.512Z,25.80
2022-12-04T02:45:00.460Z,27.00
2022-12-04T02:46:00.569Z,25.70
2022-12-04T02:47:00.368Z,25.70
2022-12-04T02:48:00.327Z,26.70
2022-12-04T02:49:00.278Z,26.10
2022-12-04T02:50:00.283Z,25.80
2022-12-04T02:51:00.185Z,25.80
2022-12-04T02:52:00.163Z,25.20
2022-12-04T02:53:00.124Z,26.30
2022-12-04T02:54:00.061Z,26.40
2022-12-04T02:55:04.036Z,26.30
2022-12-04T02:55:59.960Z,25.90
2022-12-04T02:56:59.911Z,26.20
2022-12-04T02:57:59.876Z,25.10
2022-12-04T02:58:59.819Z,26.30
2022-12-04T02:59:59.778Z,26.00
2022-12-04T03:00:59.770Z,26.30
2022-12-04T03:01:59.695Z,26.00
2022-12-04T03:02:59.713Z,25.70
2022-12-04T03:03:59.593Z,26.20
2022-12-04T03:04:59.541Z,27.10
2022-12-04T03:05:59.508Z,25.50
2022-12-04T03:06:59.451Z,26.10
2022-12-04T03:07:59.434Z,25.50
2022-12-04T03:08:59.372Z,26.20
2022-12-04T03:09:59.319Z,25.50
2022-12-04T03:10:59.267Z,26.20
2022-12-04T03:11:59.226Z,26.40
2022-12-04T03:12:59.176Z,25.90
2022-12-04T03:13:59.133Z,26.20
2022-12-04T03:14:59.099Z,26.40
2022-12-04T03:15:59.040Z,25.80
2022-12-04T03:16:59.076Z,27.40
2022-12-04T03:17:58.953Z,26.60
2022-12-04T03:18:58.904Z,25.60
2022-12-04T03:19:58.858Z,27.00
2022-12-04T03:20:58.821Z,26.20
2022-12-04T03:21:58.769Z,26.00
2022-12-04T03:22:58.718Z,25.80
2022-12-04T03:23:58.676Z,25.40
2022-12-04T03:24:58.626Z,26.00
2022-12-04T03:25:58.590Z,26.40
2022-12-04T03:26:58.534Z,26.70
2022-12-04T03:27:58.488Z,26.80
2022-12-04T03:28:58.444Z,27.80
2022-12-04T03:29:58.477Z,26.80
2022-12-04T03:30:58.416Z,27.00
2022-12-04T03:31:58.326Z,26.90
2022-12-04T03:32:58.261Z,27.20
2022-12-04T03:33:58.215Z,26.80
2022-12-04T03:34:58.166Z,26.20
2022-12-04T03:35:58.125Z,27.00
2022-12-04T03:36:58.084Z,26.70
2022-12-04T03:37:58.035Z,27.30
2022-12-04T03:38:57.983Z,27.40
2022-12-04T03:39:58.279Z,27.10
2022-12-04T03:40:57.894Z,27.60
2022-12-04T03:41:57.863Z,27.60
2022-12-04T03:42:57.802Z,26.90
2022-12-04T03:43:57.757Z,27.20
2022-12-04T03:44:57.707Z,26.10
2022-12-04T03:45:57.685Z,27.20
2022-12-04T03:46:57.618Z,26.10
2022-12-04T03:47:57.587Z,26.30
2022-12-04T03:48:57.525Z,26.50
2022-12-04T03:49:57.962Z,27.80
2022-12-04T03:50:57.436Z,26.30
2022-12-04T03:51:57.387Z,26.60
2022-12-04T03:52:57.356Z,26.70
2022-12-04T03:53:57.294Z,27.30
2022-12-04T03:54:57.245Z,26.60
2022-12-04T03:55:57.203Z,26.20
2022-12-04T03:56:57.162Z,26.80
2022-12-04T03:57:57.111Z,27.70
2022-12-04T03:58:57.076Z,26.50
2022-12-04T03:59:57.518Z,26.80
2022-12-04T04:00:56.993Z,28.00
2022-12-04T04:01:56.991Z,26.60
2022-12-04T04:02:56.920Z,27.70
2022-12-04T04:03:56.840Z,26.00
2022-12-04T04:04:56.796Z,26.50
2022-12-04T04:05:56.741Z,26.40
2022-12-04T04:06:56.691Z,27.40
2022-12-04T04:07:56.700Z,25.70
2022-12-04T04:08:56.602Z,26.40
2022-12-04T04:09:57.060Z,27.60
2022-12-04T04:10:56.532Z,26.90
2022-12-04T04:11:56.466Z,26.50
2022-12-04T04:12:56.417Z,27.00
2022-12-04T04:13:56.373Z,27.30
2022-12-04T04:14:56.324Z,26.30
2022-12-04T04:15:56.363Z,26.20
2022-12-04T04:16:56.251Z,26.40
2022-12-04T04:17:56.192Z,26.10
2022-12-04T04:18:56.139Z,26.30
2022-12-04T04:19:56.195Z,26.30
2022-12-04T04:20:56.048Z,26.00
2022-12-04T04:21:56.001Z,25.90
2022-12-04T04:22:56.388Z,26.80
2022-12-04T04:23:55.915Z,26.40
2022-12-04T04:24:55.865Z,26.80
2022-12-04T04:25:55.824Z,26.10
2022-12-04T04:26:55.769Z,27.00
2022-12-04T04:27:55.744Z,26.20
2022-12-04T04:28:55.679Z,25.80
2022-12-04T04:29:56.061Z,26.50
2022-12-04T04:30:55.629Z,26.00
2022-12-04T04:31:55.544Z,25.90
2022-12-04T04:32:55.495Z,26.10
2022-12-04T04:33:55.460Z,25.30
2022-12-04T04:34:55.401Z,26.10
2022-12-04T04:35:55.362Z,26.10
2022-12-04T04:36:55.318Z,24.90
2022-12-04T04:37:55.268Z,26.10
2022-12-04T04:38:55.228Z,26.50
2022-12-04T04:39:55.404Z,25.80
2022-12-04T04:40:55.243Z,25.80
2022-12-04T04:41:55.082Z,25.60
2022-12-04T04:42:55.029Z,25.70
2022-12-04T04:43:54.988Z,25.10
2022-12-04T04:44:54.936Z,25.40
2022-12-04T04:45:54.960Z,25.40
2022-12-04T04:46:54.899Z,25.00
2022-12-04T04:47:54.802Z,24.50
2022-12-04T04:48:54.753Z,24.90
2022-12-04T04:49:54.992Z,24.70
2022-12-04T04:50:54.662Z,25.10
2022-12-04T04:51:54.634Z,25.20
2022-12-04T04:52:54.571Z,24.40
2022-12-04T04:53:54.528Z,24.90
2022-12-04T04:54:54.479Z,25.60
2022-12-04T04:55:54.433Z,24.60
2022-12-04T04:56:54.385Z,24.40
2022-12-04T04:57:54.353Z,25.00
2022-12-04T04:58:54.296Z,24.30
2022-12-04T04:59:54.609Z,24.00
2022-12-04T05:00:54.203Z,24.00
2022-12-04T05:01:54.181Z,25.00
2022-12-04T05:02:54.208Z,24.60
2022-12-04T05:03:54.079Z,23.90
2022-12-04T05:04:54.025Z,24.40
2022-12-04T05:05:53.969Z,24.40
2022-12-04T05:06:53.921Z,24.20
2022-12-04T05:07:54.003Z,24.30
2022-12-04T05:08:53.831Z,24.80
2022-12-04T05:09:54.126Z,23.70
2022-12-04T05:10:53.736Z,23.80
2022-12-04T05:11:53.695Z,23.40
2022-12-04T05:12:53.644Z,23.40
2022-12-04T05:13:53.598Z,22.60
2022-12-04T05:14:53.564Z,23.20
2022-12-04T05:15:53.520Z,23.10
2022-12-04T05:16:53.458Z,24.30
2022-12-04T05:17:53.411Z,22.50
2022-12-04T05:18:53.365Z,23.10
2022-12-04T05:19:53.678Z,22.20
2022-12-04T05:20:53.281Z,22.60
2022-12-04T05:21:53.241Z,22.80
2022-12-04T05:22:53.181Z,23.00
2022-12-04T05:23:53.132Z,22.00
2022-12-04T05:24:53.086Z,22.30
2022-12-04T05:25:53.040Z,22.60
2022-12-04T05:26:53.021Z,23.20
2022-12-04T05:27:52.950Z,22.60
2022-12-04T05:28:52.912Z,22.70
2022-12-04T05:29:53.151Z,21.60
2022-12-04T05:30:52.834Z,21.60
2022-12-04T05:31:52.763Z,22.50
2022-12-04T05:32:52.724Z,21.30
2022-12-04T05:33:52.681Z,21.40
2022-12-04T05:34:52.636Z,21.60
2022-12-04T05:35:52.575Z,20.80
2022-12-04T05:36:52.526Z,20.90
2022-12-04T05:37:52.499Z,21.50
2022-12-04T05:38:52.431Z,21.10
2022-12-04T05:39:52.490Z,21.20
2022-12-04T05:40:52.341Z,20.70
2022-12-04T05:41:52.297Z,22.00
2022-12-04T05:42:52.244Z,21.50
2022-12-04T05:43:52.214Z,20.60
2022-12-04T05:44:52.168Z,21.50
2022-12-04T05:45:52.108Z,20.60
2022-12-04T05:46:52.088Z,20.60
2022-12-04T05:47:52.017Z,21.20
2022-12-04T05:48:51.964Z,21.20
2022-12-04T05:49:51.917Z,20.40
2022-12-04T05:50:51.894Z,21.50
2022-12-04T05:51:51.828Z,21.60
2022-12-04T05:52:51.778Z,21.50
2022-12-04T05:53:51.730Z,22.20
2022-12-04T05:54:51.683Z,22.10
2022-12-04T05:55:51.640Z,21.80
2022-12-04T05:56:51.603Z,22.30
2022-12-04T05:57:51.543Z,22.30
2022-12-04T05:58:51.495Z,22.90
2022-12-04T05:59:51.454Z,23.20
2022-12-04T06:00:51.401Z,23.20
2022-12-04T06:01:51.432Z,23.60
2022-12-04T06:02:51.348Z,23.80
2022-12-04T06:03:51.263Z,22.70
2022-12-04T06:04:51.216Z,22.60
2022-12-04T06:05:51.168Z,23.20
2022-12-04T06:06:51.118Z,23.90
2022-12-04T06:07:51.132Z,23.30
2022-12-04T06:08:51.030Z,23.70
2022-12-04T06:09:50.981Z,22.10
2022-12-04T06:10:50.932Z,22.90
2022-12-04T06:11:50.885Z,22.80
2022-12-04T06:12:50.838Z,23.50
2022-12-04T06:13:50.806Z,23.30
2022-12-04T06:14:50.744Z,22.20
2022-12-04T06:15:50.703Z,21.60
2022-12-04T06:16:50.752Z,23.30
2022-12-04T06:17:50.606Z,22.40
2022-12-04T06:18:50.554Z,23.30
2022-12-04T06:19:50.557Z,23.20
2022-12-04T06:20:50.547Z,22.50
2022-12-04T06:21:50.412Z,22.90
2022-12-04T06:22:50.371Z,22.10
2022-12-04T06:23:50.322Z,20.20
2022-12-04T06:24:50.280Z,21.30
2022-12-04T06:25:50.235Z,21.60
2022-12-04T06:27:25.566Z,20.80
2022-12-04T06:27:50.133Z,21.90
2022-12-04T06:28:50.086Z,20.80
2022-12-04T06:29:50.045Z,21.60
2022-12-04T06:30:49.992Z,21.80
2022-12-04T06:31:50.061Z,21.90
2022-12-04T06:32:49.901Z,21.70
2022-12-04T06:33:49.846Z,21.80
2022-12-04T06:34:49.809Z,21.20
2022-12-04T06:35:49.758Z,20.70
2022-12-04T06:36:49.724Z,20.70
2022-12-04T06:37:49.661Z,21.50
2022-12-04T06:38:49.617Z,20.80
2022-12-04T06:39:49.571Z,19.90
2022-12-04T06:40:49.527Z,19.30
2022-12-04T06:41:49.501Z,19.70
2022-12-04T06:42:49.435Z,19.80
2022-12-04T06:43:49.380Z,19.30
2022-12-04T06:44:49.337Z,19.40
2022-12-04T06:45:49.390Z,20.00
2022-12-04T06:46:50.168Z,19.40
2022-12-04T06:47:49.194Z,19.90
2022-12-04T06:48:49.165Z,19.70
2022-12-04T06:49:49.098Z,19.30
2022-12-04T06:50:49.054Z,19.10
2022-12-04T06:51:49.015Z,18.20
2022-12-04T06:52:48.966Z,18.20
2022-12-04T06:53:48.921Z,18.30
2022-12-04T06:54:48.866Z,18.00
2022-12-04T06:55:48.846Z,18.00
2022-12-04T06:56:48.783Z,18.40
2022-12-04T06:57:48.720Z,17.50
2022-12-04T06:58:49.398Z,18.40
2022-12-04T06:59:48.632Z,18.00
2022-12-04T07:00:48.604Z,17.20
2022-12-04T07:01:48.630Z,15.90
2022-12-04T07:02:48.541Z,16.10
2022-12-04T07:03:51.593Z,15.90
2022-12-04T07:04:48.404Z,16.30
2022-12-04T07:05:48.353Z,16.10
2022-12-04T07:06:48.314Z,15.50
2022-12-04T07:07:48.331Z,15.50
2022-12-04T07:08:48.212Z,16.20
2022-12-04T07:09:48.169Z,14.90
2022-12-04T07:10:48.141Z,14.20
2022-12-04T07:11:48.085Z,13.60
2022-12-04T07:12:48.031Z,14.60
2022-12-04T07:13:47.982Z,15.20
2022-12-04T07:14:48.009Z,15.80
2022-12-04T07:15:47.919Z,12.70
2022-12-04T07:16:47.893Z,12.60
2022-12-04T07:17:47.813Z,13.80
2022-12-04T07:18:47.753Z,12.70
2022-12-04T07:19:47.972Z,13.70
2022-12-04T07:20:47.661Z,14.00
2022-12-04T07:21:47.612Z,14.00
2022-12-04T07:22:47.563Z,13.20
2022-12-04T07:23:47.528Z,12.00
2022-12-04T07:24:47.481Z,12.30
2022-12-04T07:25:47.421Z,12.10
2022-12-04T07:26:47.374Z,11.30
2022-12-04T07:27:47.333Z,11.80
2022-12-04T07:28:47.298Z,11.40
2022-12-04T07:29:47.247Z,11.90
2022-12-04T07:30:47.212Z,12.10
2022-12-04T07:31:47.228Z,11.40
2022-12-04T07:32:47.104Z,13.10
2022-12-04T07:33:47.053Z,13.20
2022-12-04T07:34:47.009Z,12.60
2022-12-04T07:35:46.961Z,13.30
2022-12-04T07:36:46.929Z,12.70
2022-12-04T07:37:46.876Z,12.40
2022-12-04T07:38:46.827Z,12.70
2022-12-04T07:39:46.776Z,12.00
2022-12-04T07:40:46.732Z,13.00
2022-12-04T07:41:46.682Z,12.60
2022-12-04T07:42:46.660Z,12.50
2022-12-04T07:43:46.593Z,12.40
2022-12-04T07:44:46.562Z,12.70
2022-12-04T07:45:46.500Z,12.50
2022-12-04T07:46:46.455Z,12.40
2022-12-04T07:47:46.412Z,12.00
2022-12-04T07:48:46.371Z,11.90
2022-12-04T07:49:46.312Z,12.20
2022-12-04T07:50:46.294Z,12.10
2022-12-04T07:51:46.225Z,11.60
2022-12-04T07:52:46.181Z,12.30
2022-12-04T07:53:46.127Z,12.40
2022-12-04T07:54:46.084Z,51.60
2022-12-04T07:55:46.037Z,56.90
2022-12-04T07:56:46.004Z,13.40
2022-12-04T07:57:45.947Z,12.20
2022-12-04T07:58:45.902Z,12.80
2022-12-04T07:59:45.855Z,12.20
2022-12-04T08:00:45.810Z,11.80
2022-12-04T08:01:45.845Z,11.40
2022-12-04T08:02:45.719Z,11.80
2022-12-04T08:03:48.547Z,11.00
2022-12-04T08:04:45.734Z,11.20
2022-12-04T08:05:45.578Z,12.50
2022-12-04T08:06:45.536Z,11.70
2022-12-04T08:07:45.563Z,11.30
2022-12-04T08:08:45.440Z,11.50
2022-12-04T08:09:45.393Z,11.40
2022-12-04T08:10:45.362Z,11.90
2022-12-04T08:11:45.301Z,11.70
2022-12-04T08:12:45.265Z,11.30
2022-12-04T08:13:45.227Z,11.40
2022-12-04T08:14:45.163Z,11.30
2022-12-04T08:15:45.118Z,11.90
2022-12-04T08:16:48.335Z,12.70
2022-12-04T08:17:45.029Z,13.20
2022-12-04T08:18:53.945Z,11.70
2022-12-04T08:19:44.934Z,11.60
2022-12-04T08:20:44.892Z,11.40
2022-12-04T08:21:44.844Z,11.60
2022-12-04T08:22:44.799Z,11.70
2022-12-04T08:23:44.752Z,11.80
2022-12-04T08:24:44.717Z,11.90
2022-12-04T08:25:44.658Z,11.50
2022-12-04T08:26:44.615Z,11.50
2022-12-04T08:27:47.330Z,10.90
2022-12-04T08:28:44.527Z,11.00
2022-12-04T08:29:44.475Z,12.70
2022-12-04T08:30:44.533Z,26.60
2022-12-04T08:31:44.387Z,22.00
2022-12-04T08:32:44.341Z,11.70
2022-12-04T08:33:44.293Z,11.70
2022-12-04T08:34:44.251Z,10.90
2022-12-04T08:35:44.202Z,10.20
2022-12-04T08:36:44.170Z,10.70
2022-12-04T08:37:44.111Z,10.70
2022-12-04T08:38:44.081Z,10.40
2022-12-04T08:39:44.021Z,10.30
2022-12-04T08:40:43.974Z,10.10
2022-12-04T08:41:43.948Z,10.10
2022-12-04T08:42:43.889Z,9.90
2022-12-04T08:43:43.836Z,10.50
2022-12-04T08:44:43.791Z,10.70
2022-12-04T08:45:43.773Z,10.50
2022-12-04T08:46:43.771Z,10.80
2022-12-04T08:47:45.832Z,11.10
2022-12-04T08:48:43.611Z,10.10
2022-12-04T08:49:43.559Z,10.10
2022-12-04T08:50:43.531Z,11.10
2022-12-04T08:51:43.470Z,10.90
2022-12-04T08:52:43.427Z,10.30
2022-12-04T08:53:43.376Z,9.40
2022-12-04T08:54:43.334Z,9.60
2022-12-04T08:55:43.286Z,10.00
2022-12-04T08:56:43.266Z,9.60
2022-12-04T08:57:43.195Z,9.30
2022-12-04T08:58:43.155Z,10.10
2022-12-04T08:59:43.102Z,9.30
2022-12-04T09:00:43.062Z,9.60
2022-12-04T09:01:43.091Z,9.50
2022-12-04T09:02:42.979Z,9.50
2022-12-04T09:03:42.919Z,10.10
2022-12-04T09:04:42.913Z,9.70
2022-12-04T09:05:42.850Z,10.00
2022-12-04T09:06:42.783Z,10.50
2022-12-04T09:07:42.829Z,10.00
2022-12-04T09:08:42.705Z,9.60
2022-12-04T09:09:48.057Z,10.00
2022-12-04T09:10:42.602Z,9.80
2022-12-04T09:11:42.555Z,9.70
2022-12-04T09:12:42.509Z,9.70
2022-12-04T09:13:42.463Z,9.90
2022-12-04T09:14:42.456Z,10.20
2022-12-04T09:15:42.384Z,10.40
2022-12-04T09:16:42.329Z,10.60
2022-12-04T09:17:42.278Z,10.00
2022-12-04T09:18:42.234Z,10.50
2022-12-04T09:19:42.190Z,10.20
2022-12-04T09:20:42.155Z,10.30
2022-12-04T09:21:42.099Z,10.60
2022-12-04T09:23:02.865Z,10.30
2022-12-04T09:23:42.005Z,10.30
2022-12-04T09:24:41.963Z,10.30
2022-12-04T09:25:41.913Z,10.50
2022-12-04T09:26:41.879Z,10.30
2022-12-04T09:27:41.821Z,10.50
2022-12-04T09:28:41.781Z,10.00
2022-12-04T09:29:41.729Z,10.20
2022-12-04T09:30:41.726Z,10.90
2022-12-04T09:31:41.719Z,10.10
2022-12-04T09:32:41.615Z,10.20
2022-12-04T09:33:41.558Z,10.50
2022-12-04T09:34:41.505Z,10.70
2022-12-04T09:35:41.456Z,10.40
2022-12-04T09:36:41.420Z,10.20
2022-12-04T09:37:41.366Z,10.50
2022-12-04T09:38:41.326Z,10.40
2022-12-04T09:39:41.287Z,10.40
2022-12-04T09:40:41.237Z,10.60
2022-12-04T09:41:41.186Z,10.60
2022-12-04T09:42:41.141Z,10.20
2022-12-04T09:43:41.092Z,10.70
2022-12-04T09:44:41.052Z,10.40
2022-12-04T09:45:41.012Z,9.80
2022-12-04T09:46:41.090Z,10.10
2022-12-04T09:47:40.912Z,10.50
2022-12-04T09:48:40.869Z,10.30
2022-12-04T09:49:40.819Z,10.00
2022-12-04T09:50:40.792Z,10.30
2022-12-04T09:51:40.728Z,9.80
2022-12-04T09:52:40.684Z,9.90
2022-12-04T09:53:40.639Z,10.00
2022-12-04T09:54:40.595Z,10.10
2022-12-04T09:55:40.560Z,9.80
2022-12-04T09:56:40.502Z,9.60
2022-12-04T09:57:40.454Z,10.00
2022-12-04T09:58:40.415Z,9.80
2022-12-04T09:59:40.364Z,9.70
2022-12-04T10:00:40.334Z,9.70
2022-12-04T10:01:40.274Z,9.60
2022-12-04T10:02:40.441Z,10.00
2022-12-04T10:03:40.346Z,10.00
2022-12-04T10:04:40.143Z,9.60
2022-12-04T10:05:40.121Z,10.00
2022-12-04T10:06:40.050Z,10.10
2022-12-04T10:07:40.042Z,10.20
2022-12-04T10:08:39.957Z,10.10
2022-12-04T10:09:39.918Z,10.40
2022-12-04T10:10:39.865Z,9.60
2022-12-04T10:11:39.827Z,10.30
2022-12-04T10:12:39.775Z,10.60
2022-12-04T10:13:39.734Z,9.80
2022-12-04T10:14:39.686Z,9.80
2022-12-04T10:15:39.696Z,9.80
2022-12-04T10:16:39.645Z,10.30
2022-12-04T10:17:39.544Z,10.10
2022-12-04T10:18:39.499Z,10.70
2022-12-04T10:19:39.455Z,10.50
2022-12-04T10:20:39.412Z,10.50
2022-12-04T10:21:39.371Z,10.10
2022-12-04T10:22:39.329Z,11.30
2022-12-04T10:23:39.270Z,10.70
2022-12-04T10:24:39.229Z,10.30
2022-12-04T10:25:39.181Z,10.50
2022-12-04T10:26:39.140Z,10.30
2022-12-04T10:27:39.090Z,10.80
2022-12-04T10:28:39.058Z,10.40
2022-12-04T10:29:38.999Z,10.00
2022-12-04T10:30:38.955Z,10.50
2022-12-04T10:31:38.971Z,10.90
2022-12-04T10:32:38.869Z,10.60
2022-12-04T10:33:38.836Z,10.30
2022-12-04T10:34:42.588Z,10.20
2022-12-04T10:35:38.735Z,10.80
2022-12-04T10:36:38.683Z,10.90
2022-12-04T10:37:38.640Z,11.20
2022-12-04T10:38:38.590Z,10.30
2022-12-04T10:39:38.548Z,10.10
2022-12-04T10:40:38.512Z,10.70
2022-12-04T10:41:38.469Z,10.20
2022-12-04T10:42:38.415Z,10.10
2022-12-04T10:43:38.370Z,10.70
2022-12-04T10:44:38.321Z,10.60
2022-12-04T10:45:38.281Z,10.70
2022-12-04T10:46:41.882Z,11.20
2022-12-04T10:47:38.185Z,11.20
2022-12-04T10:48:38.139Z,10.70
2022-12-04T10:49:38.098Z,10.80
2022-12-04T10:50:38.048Z,10.40
2022-12-04T10:51:38.016Z,10.40
2022-12-04T10:52:37.956Z,10.50
2022-12-04T10:53:37.917Z,10.80
2022-12-04T10:54:37.869Z,10.80
2022-12-04T10:55:37.824Z,10.90
2022-12-04T10:56:37.776Z,10.90
2022-12-04T10:57:37.743Z,10.50
2022-12-04T10:58:37.694Z,11.00
2022-12-04T10:59:37.642Z,11.10
2022-12-04T11:00:37.596Z,10.60
2022-12-04T11:01:37.584Z,10.90
2022-12-04T11:02:37.608Z,11.30
2022-12-04T11:03:37.488Z,11.20
2022-12-04T11:04:37.414Z,10.90
2022-12-04T11:05:37.372Z,10.90
2022-12-04T11:06:37.323Z,11.00
2022-12-04T11:07:37.429Z,11.20
2022-12-04T11:08:37.235Z,11.60
2022-12-04T11:09:37.193Z,11.30
2022-12-04T11:10:37.149Z,11.20
2022-12-04T11:11:37.105Z,11.50
2022-12-04T11:12:37.065Z,11.10
2022-12-04T11:13:37.011Z,11.00
2022-12-04T11:14:36.965Z,11.00
2022-12-04T11:15:36.923Z,11.20
2022-12-04T11:16:36.961Z,12.00
2022-12-04T11:17:36.829Z,11.60
2022-12-04T11:18:36.793Z,11.20
2022-12-04T11:19:36.745Z,11.60
2022-12-04T11:20:36.694Z,11.60
2022-12-04T11:21:36.653Z,11.70
2022-12-04T11:22:36.609Z,11.60
2022-12-04T11:23:36.569Z,11.60
2022-12-04T11:24:36.525Z,10.90
2022-12-04T11:25:36.474Z,11.90
2022-12-04T11:26:36.425Z,11.60
2022-12-04T11:27:36.385Z,11.60
2022-12-04T11:28:43.529Z,12.00
2022-12-04T11:29:36.293Z,11.80
2022-12-04T11:30:36.256Z,11.00
2022-12-04T11:31:36.259Z,12.00
2022-12-04T11:32:36.157Z,11.80
2022-12-04T11:33:36.113Z,11.10
2022-12-04T11:34:36.068Z,12.10
2022-12-04T11:35:36.034Z,12.40
2022-12-04T11:36:35.990Z,12.10
2022-12-04T11:37:39.292Z,12.20
2022-12-04T11:38:35.886Z,12.40
2022-12-04T11:39:35.858Z,12.20
2022-12-04T11:40:35.797Z,12.40
2022-12-04T11:41:35.759Z,12.30
2022-12-04T11:42:35.723Z,12.70
2022-12-04T11:43:35.667Z,12.40
2022-12-04T11:44:35.623Z,12.20
2022-12-04T11:45:35.575Z,12.60
2022-12-04T11:46:35.601Z,12.30
2022-12-04T11:47:35.493Z,12.20
2022-12-04T11:48:35.448Z,12.00
2022-12-04T11:49:39.515Z,12.60
2022-12-04T11:50:35.347Z,12.10
2022-12-04T11:51:35.323Z,12.60
2022-12-04T11:52:35.264Z,11.70
2022-12-04T11:53:35.217Z,12.30
2022-12-04T11:54:35.168Z,12.30
2022-12-04T11:55:35.127Z,11.70
2022-12-04T11:56:35.080Z,12.20
2022-12-04T11:57:35.055Z,13.70
2022-12-04T11:58:35.001Z,47.80
2022-12-04T11:59:34.968Z,14.30
2022-12-04T12:00:34.900Z,16.90
2022-12-04T12:01:34.924Z,14.70
2022-12-04T12:02:34.975Z,12.90
2022-12-04T12:03:34.853Z,12.30
2022-12-04T12:04:34.719Z,15.10
2022-12-04T12:05:34.692Z,13.20
2022-12-04T12:06:34.631Z,13.90
2022-12-04T12:07:34.706Z,14.50
2022-12-04T12:08:34.545Z,12.80
2022-12-04T12:09:34.496Z,12.20
2022-12-04T12:10:34.452Z,12.90
2022-12-04T12:11:34.424Z,13.00
2022-12-04T12:12:34.364Z,12.50
2022-12-04T12:13:34.321Z,12.50
2022-12-04T12:14:34.274Z,13.10
2022-12-04T12:15:34.244Z,11.90
2022-12-04T12:16:34.221Z,12.50
2022-12-04T12:17:34.140Z,12.10
2022-12-04T12:18:34.094Z,12.50
2022-12-04T12:19:34.066Z,12.40
2022-12-04T12:20:34.006Z,12.40
2022-12-04T12:21:33.976Z,11.90
2022-12-04T12:22:33.913Z,12.90
2022-12-04T12:23:33.875Z,12.20
2022-12-04T12:24:33.824Z,12.40
2022-12-04T12:25:33.787Z,11.70
2022-12-04T12:26:33.735Z,12.40
2022-12-04T12:27:33.707Z,12.20
2022-12-04T12:28:33.649Z,12.30
2022-12-04T12:29:33.605Z,12.70
2022-12-04T12:30:33.558Z,12.10
2022-12-04T12:31:33.556Z,12.40
2022-12-04T12:32:33.465Z,11.70
2022-12-04T12:33:33.438Z,11.80
2022-12-04T12:34:33.377Z,12.00
2022-12-04T12:35:33.336Z,12.00
2022-12-04T12:36:33.286Z,12.50
2022-12-04T12:37:33.243Z,12.10
2022-12-04T12:38:33.197Z,11.80
2022-12-04T12:39:33.165Z,12.70
2022-12-04T12:40:33.107Z,12.20
2022-12-04T12:41:33.062Z,12.10
2022-12-04T12:42:33.015Z,12.10
2022-12-04T12:43:33.033Z,12.30
2022-12-04T12:44:32.943Z,12.10
2022-12-04T12:45:32.933Z,12.80
2022-12-04T12:46:32.882Z,12.30
2022-12-04T12:47:32.798Z,16.50
2022-12-04T12:48:32.747Z,22.20
2022-12-04T12:49:32.708Z,26.30
2022-12-04T12:50:32.672Z,19.90
2022-12-04T12:51:32.612Z,12.30
2022-12-04T12:52:32.567Z,12.30
2022-12-04T12:53:32.524Z,12.90